sensor_id;sensor_type;location;lat;lon;timestamp;P1;durP1;ratioP1;P2;durP2;ratioP2
19589;SDS011;12231;42.782;23.388;2023-06-04T00:01:28;6.35;;;4.70;;
19589;SDS011;12231;42.782;23.388;2023-06-04T00:03:53;5.68;;;4.93;;
19589;SDS011;12231;42.782;23.388;2023-06-04T00:06:18;5.15;;;4.53;;
19589;SDS011;12231;42.782;23.388;2023-06-04T00:08:44;4.68;;;4.20;;
19589;SDS011;12231;42.782;23.388;2023-06-04T00:11:10;4.85;;;4.28;;
19589;SDS011;12231;42.782;23.388;2023-06-04T00:13:35;6.45;;;4.95;;
19589;SDS011;12231;42.782;23.388;2023-06-04T00:16:00;4.93;;;4.00;;
19589;SDS011;12231;42.782;23.388;2023-06-04T00:18:26;5.70;;;4.40;;
19589;SDS011;12231;42.782;23.388;2023-06-04T00:20:51;4.93;;;3.85;;
19589;SDS011;12231;42.782;23.388;2023-06-04T00:23:16;4.97;;;4.40;;
19589;SDS011;12231;42.782;23.388;2023-06-04T00:25:41;5.43;;;4.53;;
19589;SDS011;12231;42.782;23.388;2023-06-04T00:28:07;5.80;;;4.47;;
19589;SDS011;12231;42.782;23.388;2023-06-04T00:30:32;4.93;;;4.25;;
19589;SDS011;12231;42.782;23.388;2023-06-04T00:32:57;5.72;;;4.43;;
19589;SDS011;12231;42.782;23.388;2023-06-04T00:35:22;6.65;;;4.10;;
19589;SDS011;12231;42.782;23.388;2023-06-04T00:37:47;5.63;;;4.28;;
19589;SDS011;12231;42.782;23.388;2023-06-04T00:40:13;6.10;;;4.32;;
19589;SDS011;12231;42.782;23.388;2023-06-04T00:42:38;5.82;;;4.70;;
19589;SDS011;12231;42.782;23.388;2023-06-04T00:45:04;5.15;;;4.65;;
19589;SDS011;12231;42.782;23.388;2023-06-04T00:47:32;6.22;;;4.82;;
19589;SDS011;12231;42.782;23.388;2023-06-04T00:49:57;7.15;;;5.38;;
19589;SDS011;12231;42.782;23.388;2023-06-04T00:52:23;5.63;;;5.05;;
19589;SDS011;12231;42.782;23.388;2023-06-04T00:54:49;6.00;;;4.97;;
19589;SDS011;12231;42.782;23.388;2023-06-04T00:57:14;8.30;;;5.93;;
19589;SDS011;12231;42.782;23.388;2023-06-04T00:59:40;7.15;;;5.22;;
19589;SDS011;12231;42.782;23.388;2023-06-04T01:02:08;5.45;;;4.93;;
19589;SDS011;12231;42.782;23.388;2023-06-04T01:04:41;7.03;;;4.63;;
19589;SDS011;12231;42.782;23.388;2023-06-04T01:07:09;6.50;;;5.25;;
19589;SDS011;12231;42.782;23.388;2023-06-04T01:09:35;7.72;;;5.15;;
19589;SDS011;12231;42.782;23.388;2023-06-04T01:12:03;6.20;;;4.65;;
19589;SDS011;12231;42.782;23.388;2023-06-04T01:14:29;5.47;;;3.97;;
19589;SDS011;12231;42.782;23.388;2023-06-04T01:22:13;6.13;;;5.10;;
19589;SDS011;12231;42.782;23.388;2023-06-04T01:24:45;6.15;;;5.10;;
19589;SDS011;12231;42.782;23.388;2023-06-04T01:27:16;4.78;;;4.20;;
19589;SDS011;12231;42.782;23.388;2023-06-04T01:29:42;4.45;;;4.05;;
19589;SDS011;12231;42.782;23.388;2023-06-04T01:32:09;5.78;;;4.00;;
19589;SDS011;12231;42.782;23.388;2023-06-04T01:34:44;4.88;;;4.30;;
19589;SDS011;12231;42.782;23.388;2023-06-04T01:37:10;6.80;;;4.40;;
19589;SDS011;12231;42.782;23.388;2023-06-04T01:39:36;5.95;;;3.63;;
19589;SDS011;12231;42.782;23.388;2023-06-04T01:42:01;4.05;;;3.65;;
19589;SDS011;12231;42.782;23.388;2023-06-04T01:44:27;5.47;;;4.00;;
19589;SDS011;12231;42.782;23.388;2023-06-04T01:46:52;5.43;;;4.60;;
19589;SDS011;12231;42.782;23.388;2023-06-04T01:49:17;8.57;;;3.63;;
19589;SDS011;12231;42.782;23.388;2023-06-04T01:51:43;6.43;;;4.35;;
19589;SDS011;12231;42.782;23.388;2023-06-04T01:54:08;6.93;;;4.63;;
19589;SDS011;12231;42.782;23.388;2023-06-04T01:56:33;5.55;;;4.40;;
19589;SDS011;12231;42.782;23.388;2023-06-04T01:58:58;5.28;;;4.78;;
19589;SDS011;12231;42.782;23.388;2023-06-04T02:01:24;5.78;;;4.72;;
19589;SDS011;12231;42.782;23.388;2023-06-04T02:03:49;6.25;;;5.13;;
19589;SDS011;12231;42.782;23.388;2023-06-04T02:06:14;7.30;;;4.95;;
19589;SDS011;12231;42.782;23.388;2023-06-04T02:08:40;6.22;;;4.35;;
19589;SDS011;12231;42.782;23.388;2023-06-04T02:11:07;5.78;;;4.97;;
19589;SDS011;12231;42.782;23.388;2023-06-04T02:13:32;8.60;;;5.10;;
19589;SDS011;12231;42.782;23.388;2023-06-04T02:15:57;4.35;;;3.90;;
19589;SDS011;12231;42.782;23.388;2023-06-04T02:18:23;7.63;;;3.78;;
19589;SDS011;12231;42.782;23.388;2023-06-04T02:20:49;5.22;;;3.60;;
19589;SDS011;12231;42.782;23.388;2023-06-04T02:23:16;5.13;;;4.32;;
19589;SDS011;12231;42.782;23.388;2023-06-04T02:25:41;4.05;;;3.58;;
19589;SDS011;12231;42.782;23.388;2023-06-04T02:28:09;6.57;;;4.28;;
19589;SDS011;12231;42.782;23.388;2023-06-04T02:30:35;5.43;;;4.72;;
19589;SDS011;12231;42.782;23.388;2023-06-04T02:33:00;6.35;;;4.55;;
19589;SDS011;12231;42.782;23.388;2023-06-04T02:35:29;4.88;;;4.38;;
19589;SDS011;12231;42.782;23.388;2023-06-04T02:37:54;4.90;;;4.28;;
19589;SDS011;12231;42.782;23.388;2023-06-04T02:40:21;7.15;;;4.38;;
19589;SDS011;12231;42.782;23.388;2023-06-04T02:42:46;5.07;;;4.53;;
19589;SDS011;12231;42.782;23.388;2023-06-04T02:45:12;5.90;;;3.92;;
19589;SDS011;12231;42.782;23.388;2023-06-04T02:47:37;4.20;;;3.78;;
19589;SDS011;12231;42.782;23.388;2023-06-04T02:50:02;7.40;;;3.83;;
19589;SDS011;12231;42.782;23.388;2023-06-04T02:52:28;7.22;;;5.22;;
19589;SDS011;12231;42.782;23.388;2023-06-04T02:54:53;7.60;;;4.32;;
19589;SDS011;12231;42.782;23.388;2023-06-04T02:57:19;5.15;;;4.05;;
19589;SDS011;12231;42.782;23.388;2023-06-04T02:59:44;6.22;;;5.15;;
19589;SDS011;12231;42.782;23.388;2023-06-04T03:02:09;5.40;;;4.90;;
19589;SDS011;12231;42.782;23.388;2023-06-04T03:04:36;6.47;;;4.65;;
19589;SDS011;12231;42.782;23.388;2023-06-04T03:07:01;7.32;;;4.63;;
19589;SDS011;12231;42.782;23.388;2023-06-04T03:09:27;6.75;;;4.97;;
19589;SDS011;12231;42.782;23.388;2023-06-04T03:11:52;6.07;;;4.53;;
19589;SDS011;12231;42.782;23.388;2023-06-04T03:14:17;5.50;;;4.22;;
19589;SDS011;12231;42.782;23.388;2023-06-04T03:16:43;6.47;;;4.40;;
19589;SDS011;12231;42.782;23.388;2023-06-04T03:19:10;6.22;;;4.95;;
19589;SDS011;12231;42.782;23.388;2023-06-04T03:21:36;4.65;;;4.20;;
19589;SDS011;12231;42.782;23.388;2023-06-04T03:24:05;7.93;;;4.85;;
19589;SDS011;12231;42.782;23.388;2023-06-04T03:26:30;5.55;;;4.68;;
19589;SDS011;12231;42.782;23.388;2023-06-04T03:28:55;5.65;;;4.40;;
19589;SDS011;12231;42.782;23.388;2023-06-04T03:31:21;5.55;;;4.47;;
19589;SDS011;12231;42.782;23.388;2023-06-04T03:33:46;5.57;;;4.97;;
19589;SDS011;12231;42.782;23.388;2023-06-04T03:36:11;5.22;;;4.15;;
19589;SDS011;12231;42.782;23.388;2023-06-04T03:38:36;3.83;;;3.35;;
19589;SDS011;12231;42.782;23.388;2023-06-04T03:41:02;3.92;;;3.47;;
19589;SDS011;12231;42.782;23.388;2023-06-04T03:43:27;4.55;;;4.15;;
19589;SDS011;12231;42.782;23.388;2023-06-04T03:45:52;7.00;;;3.97;;
19589;SDS011;12231;42.782;23.388;2023-06-04T03:48:17;4.00;;;3.67;;
19589;SDS011;12231;42.782;23.388;2023-06-04T03:50:43;6.10;;;3.83;;
19589;SDS011;12231;42.782;23.388;2023-06-04T03:53:11;4.20;;;3.28;;
19589;SDS011;12231;42.782;23.388;2023-06-04T03:55:36;4.18;;;3.72;;
19589;SDS011;12231;42.782;23.388;2023-06-04T03:58:01;4.90;;;3.70;;
19589;SDS011;12231;42.782;23.388;2023-06-04T04:00:27;5.85;;;4.32;;
19589;SDS011;12231;42.782;23.388;2023-06-04T04:02:52;5.75;;;4.15;;
19589;SDS011;12231;42.782;23.388;2023-06-04T04:05:18;5.88;;;4.60;;
19589;SDS011;12231;42.782;23.388;2023-06-04T04:07:43;5.40;;;4.40;;
19589;SDS011;12231;42.782;23.388;2023-06-04T04:10:08;6.03;;;4.40;;
19589;SDS011;12231;42.782;23.388;2023-06-04T04:12:34;5.35;;;4.43;;
19589;SDS011;12231;42.782;23.388;2023-06-04T04:15:00;4.60;;;4.20;;
19589;SDS011;12231;42.782;23.388;2023-06-04T04:17:25;4.53;;;4.13;;
19589;SDS011;12231;42.782;23.388;2023-06-04T04:19:50;5.20;;;4.20;;
19589;SDS011;12231;42.782;23.388;2023-06-04T04:22:16;3.95;;;3.55;;
19589;SDS011;12231;42.782;23.388;2023-06-04T04:24:44;5.22;;;4.15;;
19589;SDS011;12231;42.782;23.388;2023-06-04T04:27:09;5.70;;;3.65;;
19589;SDS011;12231;42.782;23.388;2023-06-04T04:29:38;5.47;;;4.18;;
19589;SDS011;12231;42.782;23.388;2023-06-04T04:32:03;4.90;;;3.95;;
19589;SDS011;12231;42.782;23.388;2023-06-04T04:34:36;4.15;;;3.75;;
19589;SDS011;12231;42.782;23.388;2023-06-04T04:37:02;5.35;;;4.53;;
19589;SDS011;12231;42.782;23.388;2023-06-04T04:39:28;6.50;;;5.20;;
19589;SDS011;12231;42.782;23.388;2023-06-04T04:41:54;6.20;;;5.50;;
19589;SDS011;12231;42.782;23.388;2023-06-04T04:44:19;6.38;;;5.05;;
19589;SDS011;12231;42.782;23.388;2023-06-04T04:46:44;6.07;;;5.50;;
19589;SDS011;12231;42.782;23.388;2023-06-04T04:49:10;4.50;;;3.67;;
19589;SDS011;12231;42.782;23.388;2023-06-04T04:51:35;3.00;;;2.80;;
19589;SDS011;12231;42.782;23.388;2023-06-04T04:54:00;2.83;;;2.50;;
19589;SDS011;12231;42.782;23.388;2023-06-04T04:56:26;2.20;;;2.10;;
19589;SDS011;12231;42.782;23.388;2023-06-04T04:58:51;2.55;;;2.35;;
19589;SDS011;12231;42.782;23.388;2023-06-04T05:01:16;1.92;;;1.83;;
19589;SDS011;12231;42.782;23.388;2023-06-04T05:03:42;2.97;;;2.35;;
19589;SDS011;12231;42.782;23.388;2023-06-04T05:06:07;2.20;;;2.00;;
19589;SDS011;12231;42.782;23.388;2023-06-04T05:08:32;3.03;;;2.40;;
19589;SDS011;12231;42.782;23.388;2023-06-04T05:10:57;2.63;;;2.42;;
19589;SDS011;12231;42.782;23.388;2023-06-04T05:13:22;2.92;;;2.70;;
19589;SDS011;12231;42.782;23.388;2023-06-04T05:15:48;2.83;;;2.60;;
19589;SDS011;12231;42.782;23.388;2023-06-04T05:18:17;2.90;;;2.60;;
19589;SDS011;12231;42.782;23.388;2023-06-04T05:20:45;2.78;;;2.58;;
19589;SDS011;12231;42.782;23.388;2023-06-04T05:23:10;3.22;;;2.65;;
19589;SDS011;12231;42.782;23.388;2023-06-04T05:25:37;3.15;;;2.25;;
19589;SDS011;12231;42.782;23.388;2023-06-04T05:28:02;2.80;;;2.45;;
19589;SDS011;12231;42.782;23.388;2023-06-04T05:30:28;2.63;;;2.30;;
19589;SDS011;12231;42.782;23.388;2023-06-04T05:32:53;2.95;;;2.58;;
19589;SDS011;12231;42.782;23.388;2023-06-04T05:35:18;2.75;;;2.55;;
19589;SDS011;12231;42.782;23.388;2023-06-04T05:37:44;4.45;;;2.65;;
19589;SDS011;12231;42.782;23.388;2023-06-04T05:40:10;3.63;;;2.60;;
19589;SDS011;12231;42.782;23.388;2023-06-04T05:42:36;2.70;;;2.50;;
19589;SDS011;12231;42.782;23.388;2023-06-04T05:45:01;2.67;;;2.47;;
19589;SDS011;12231;42.782;23.388;2023-06-04T05:47:27;2.70;;;2.50;;
19589;SDS011;12231;42.782;23.388;2023-06-04T05:49:53;4.35;;;2.70;;
19589;SDS011;12231;42.782;23.388;2023-06-04T05:52:19;3.25;;;2.40;;
19589;SDS011;12231;42.782;23.388;2023-06-04T05:54:44;3.00;;;2.70;;
19589;SDS011;12231;42.782;23.388;2023-06-04T05:57:10;3.10;;;2.80;;
19589;SDS011;12231;42.782;23.388;2023-06-04T05:59:35;3.65;;;2.95;;
19589;SDS011;12231;42.782;23.388;2023-06-04T06:02:00;2.65;;;2.45;;
19589;SDS011;12231;42.782;23.388;2023-06-04T06:04:25;2.75;;;2.53;;
19589;SDS011;12231;42.782;23.388;2023-06-04T06:06:51;2.72;;;2.53;;
19589;SDS011;12231;42.782;23.388;2023-06-04T06:09:16;3.17;;;2.70;;
19589;SDS011;12231;42.782;23.388;2023-06-04T06:11:41;2.60;;;2.40;;
19589;SDS011;12231;42.782;23.388;2023-06-04T06:14:07;2.88;;;2.42;;
19589;SDS011;12231;42.782;23.388;2023-06-04T06:16:32;3.28;;;2.78;;
19589;SDS011;12231;42.782;23.388;2023-06-04T06:18:57;4.05;;;2.67;;
19589;SDS011;12231;42.782;23.388;2023-06-04T06:21:23;4.35;;;2.80;;
19589;SDS011;12231;42.782;23.388;2023-06-04T06:23:48;4.50;;;3.70;;
19589;SDS011;12231;42.782;23.388;2023-06-04T06:26:13;3.35;;;3.00;;
19589;SDS011;12231;42.782;23.388;2023-06-04T06:28:39;3.88;;;3.08;;
19589;SDS011;12231;42.782;23.388;2023-06-04T06:31:04;3.78;;;3.03;;
19589;SDS011;12231;42.782;23.388;2023-06-04T06:33:29;6.82;;;3.30;;
19589;SDS011;12231;42.782;23.388;2023-06-04T06:35:56;3.53;;;3.15;;
19589;SDS011;12231;42.782;23.388;2023-06-04T06:38:21;3.83;;;3.22;;
19589;SDS011;12231;42.782;23.388;2023-06-04T06:40:46;3.90;;;2.95;;
19589;SDS011;12231;42.782;23.388;2023-06-04T06:43:12;3.40;;;3.10;;
19589;SDS011;12231;42.782;23.388;2023-06-04T06:45:37;3.47;;;3.08;;
19589;SDS011;12231;42.782;23.388;2023-06-04T06:48:03;3.63;;;3.33;;
19589;SDS011;12231;42.782;23.388;2023-06-04T06:50:29;4.38;;;2.92;;
19589;SDS011;12231;42.782;23.388;2023-06-04T06:52:54;4.60;;;3.42;;
19589;SDS011;12231;42.782;23.388;2023-06-04T06:55:19;3.50;;;3.20;;
19589;SDS011;12231;42.782;23.388;2023-06-04T06:57:45;3.30;;;3.00;;
19589;SDS011;12231;42.782;23.388;2023-06-04T07:00:10;5.43;;;3.50;;
19589;SDS011;12231;42.782;23.388;2023-06-04T07:02:36;4.13;;;2.95;;
19589;SDS011;12231;42.782;23.388;2023-06-04T07:05:01;3.88;;;3.10;;
19589;SDS011;12231;42.782;23.388;2023-06-04T07:07:26;3.60;;;3.17;;
19589;SDS011;12231;42.782;23.388;2023-06-04T07:09:52;6.18;;;3.10;;
19589;SDS011;12231;42.782;23.388;2023-06-04T07:12:17;4.05;;;3.10;;
19589;SDS011;12231;42.782;23.388;2023-06-04T07:14:42;3.15;;;2.85;;
19589;SDS011;12231;42.782;23.388;2023-06-04T07:17:07;4.65;;;2.80;;
19589;SDS011;12231;42.782;23.388;2023-06-04T07:19:32;3.28;;;2.58;;
19589;SDS011;12231;42.782;23.388;2023-06-04T07:21:58;4.65;;;2.60;;
19589;SDS011;12231;42.782;23.388;2023-06-04T07:24:23;3.30;;;3.00;;
19589;SDS011;12231;42.782;23.388;2023-06-04T07:26:48;3.17;;;2.80;;
19589;SDS011;12231;42.782;23.388;2023-06-04T07:29:13;3.10;;;2.78;;
19589;SDS011;12231;42.782;23.388;2023-06-04T07:31:39;3.30;;;2.80;;
19589;SDS011;12231;42.782;23.388;2023-06-04T07:34:04;2.75;;;2.55;;
19589;SDS011;12231;42.782;23.388;2023-06-04T07:36:29;3.33;;;3.00;;
19589;SDS011;12231;42.782;23.388;2023-06-04T07:53:51;4.00;;;2.97;;
19589;SDS011;12231;42.782;23.388;2023-06-04T07:56:17;3.88;;;3.28;;
19589;SDS011;12231;42.782;23.388;2023-06-04T07:58:43;3.63;;;3.28;;
19589;SDS011;12231;42.782;23.388;2023-06-04T08:01:08;4.18;;;3.03;;
19589;SDS011;12231;42.782;23.388;2023-06-04T08:03:34;4.10;;;3.50;;
19589;SDS011;12231;42.782;23.388;2023-06-04T08:05:59;4.30;;;3.30;;
19589;SDS011;12231;42.782;23.388;2023-06-04T08:08:25;4.28;;;3.22;;
19589;SDS011;12231;42.782;23.388;2023-06-04T08:10:50;3.95;;;3.33;;
19589;SDS011;12231;42.782;23.388;2023-06-04T08:13:15;3.33;;;3.03;;
19589;SDS011;12231;42.782;23.388;2023-06-04T08:15:41;4.28;;;3.78;;
19589;SDS011;12231;42.782;23.388;2023-06-04T08:18:06;3.50;;;3.20;;
19589;SDS011;12231;42.782;23.388;2023-06-04T08:20:31;3.88;;;3.58;;
19589;SDS011;12231;42.782;23.388;2023-06-04T08:22:56;5.10;;;3.47;;
19589;SDS011;12231;42.782;23.388;2023-06-04T08:25:22;4.28;;;3.00;;
19589;SDS011;12231;42.782;23.388;2023-06-04T08:27:47;4.13;;;2.95;;
19589;SDS011;12231;42.782;23.388;2023-06-04T08:30:12;7.20;;;3.60;;
19589;SDS011;12231;42.782;23.388;2023-06-04T08:32:37;4.45;;;3.78;;
19589;SDS011;12231;42.782;23.388;2023-06-04T08:35:03;4.70;;;3.58;;
19589;SDS011;12231;42.782;23.388;2023-06-04T08:37:28;5.60;;;3.42;;
19589;SDS011;12231;42.782;23.388;2023-06-04T08:39:53;4.40;;;3.30;;
19589;SDS011;12231;42.782;23.388;2023-06-04T08:42:22;4.85;;;3.38;;
19589;SDS011;12231;42.782;23.388;2023-06-04T08:44:51;5.35;;;3.53;;
19589;SDS011;12231;42.782;23.388;2023-06-04T08:47:19;4.30;;;3.40;;
19589;SDS011;12231;42.782;23.388;2023-06-04T08:49:47;4.50;;;3.70;;
19589;SDS011;12231;42.782;23.388;2023-06-04T08:52:13;5.45;;;3.65;;
19589;SDS011;12231;42.782;23.388;2023-06-04T08:54:39;3.60;;;3.30;;
19589;SDS011;12231;42.782;23.388;2023-06-04T08:57:04;3.95;;;3.65;;
19589;SDS011;12231;42.782;23.388;2023-06-04T08:59:30;6.65;;;3.85;;
19589;SDS011;12231;42.782;23.388;2023-06-04T09:01:55;4.07;;;3.63;;
19589;SDS011;12231;42.782;23.388;2023-06-04T09:04:21;4.90;;;3.85;;
19589;SDS011;12231;42.782;23.388;2023-06-04T09:06:47;6.32;;;3.80;;
19589;SDS011;12231;42.782;23.388;2023-06-04T09:09:12;6.13;;;3.40;;
19589;SDS011;12231;42.782;23.388;2023-06-04T09:12:01;5.28;;;3.90;;
19589;SDS011;12231;42.782;23.388;2023-06-04T09:14:26;4.28;;;3.30;;
19589;SDS011;12231;42.782;23.388;2023-06-04T09:16:52;5.30;;;3.70;;
19589;SDS011;12231;42.782;23.388;2023-06-04T09:19:17;4.57;;;3.33;;
19589;SDS011;12231;42.782;23.388;2023-06-04T09:21:49;4.15;;;3.75;;
19589;SDS011;12231;42.782;23.388;2023-06-04T09:24:16;4.20;;;3.70;;
19589;SDS011;12231;42.782;23.388;2023-06-04T09:26:41;4.93;;;4.05;;
19589;SDS011;12231;42.782;23.388;2023-06-04T09:29:06;4.10;;;3.75;;
19589;SDS011;12231;42.782;23.388;2023-06-04T09:31:32;5.90;;;3.70;;
19589;SDS011;12231;42.782;23.388;2023-06-04T09:34:02;5.15;;;4.10;;
19589;SDS011;12231;42.782;23.388;2023-06-04T09:36:30;9.98;;;5.07;;
19589;SDS011;12231;42.782;23.388;2023-06-04T09:38:56;5.38;;;3.63;;
19589;SDS011;12231;42.782;23.388;2023-06-04T09:41:21;9.48;;;4.57;;
19589;SDS011;12231;42.782;23.388;2023-06-04T09:43:46;6.57;;;4.28;;
19589;SDS011;12231;42.782;23.388;2023-06-04T09:46:12;6.45;;;4.32;;
19589;SDS011;12231;42.782;23.388;2023-06-04T09:48:38;5.25;;;3.90;;
19589;SDS011;12231;42.782;23.388;2023-06-04T09:51:07;6.63;;;4.22;;
19589;SDS011;12231;42.782;23.388;2023-06-04T09:53:32;5.20;;;3.65;;
19589;SDS011;12231;42.782;23.388;2023-06-04T09:55:58;4.90;;;3.55;;
19589;SDS011;12231;42.782;23.388;2023-06-04T09:58:27;4.35;;;3.40;;
19589;SDS011;12231;42.782;23.388;2023-06-04T10:00:54;9.77;;;5.10;;
19589;SDS011;12231;42.782;23.388;2023-06-04T10:03:20;5.53;;;3.90;;
19589;SDS011;12231;42.782;23.388;2023-06-04T10:05:50;7.72;;;4.75;;
19589;SDS011;12231;42.782;23.388;2023-06-04T10:08:16;4.70;;;3.92;;
19589;SDS011;12231;42.782;23.388;2023-06-04T10:10:42;4.40;;;4.00;;
19589;SDS011;12231;42.782;23.388;2023-06-04T10:13:14;4.82;;;4.13;;
19589;SDS011;12231;42.782;23.388;2023-06-04T10:15:41;4.63;;;4.13;;
19589;SDS011;12231;42.782;23.388;2023-06-04T10:18:07;6.45;;;4.03;;
19589;SDS011;12231;42.782;23.388;2023-06-04T10:20:32;5.93;;;3.67;;
19589;SDS011;12231;42.782;23.388;2023-06-04T10:22:58;7.85;;;4.32;;
19589;SDS011;12231;42.782;23.388;2023-06-04T10:25:23;6.32;;;4.38;;
19589;SDS011;12231;42.782;23.388;2023-06-04T10:27:50;4.22;;;3.78;;
19589;SDS011;12231;42.782;23.388;2023-06-04T10:30:16;5.10;;;3.90;;
19589;SDS011;12231;42.782;23.388;2023-06-04T10:32:42;6.78;;;4.30;;
19589;SDS011;12231;42.782;23.388;2023-06-04T10:35:07;5.35;;;4.45;;
19589;SDS011;12231;42.782;23.388;2023-06-04T10:37:33;4.90;;;4.07;;
19589;SDS011;12231;42.782;23.388;2023-06-04T10:39:58;5.15;;;3.92;;
19589;SDS011;12231;42.782;23.388;2023-06-04T10:42:24;7.85;;;4.63;;
19589;SDS011;12231;42.782;23.388;2023-06-04T10:44:53;4.38;;;3.97;;
19589;SDS011;12231;42.782;23.388;2023-06-04T10:49:44;4.15;;;3.85;;
19589;SDS011;12231;42.782;23.388;2023-06-04T10:52:10;4.35;;;3.80;;
19589;SDS011;12231;42.782;23.388;2023-06-04T10:54:36;4.38;;;3.97;;
19589;SDS011;12231;42.782;23.388;2023-06-04T10:57:09;4.57;;;4.18;;
19589;SDS011;12231;42.782;23.388;2023-06-04T10:59:35;4.90;;;4.38;;
19589;SDS011;12231;42.782;23.388;2023-06-04T11:02:07;4.78;;;4.38;;
19589;SDS011;12231;42.782;23.388;2023-06-04T11:04:32;4.45;;;4.05;;
19589;SDS011;12231;42.782;23.388;2023-06-04T11:07:04;6.00;;;4.85;;
19589;SDS011;12231;42.782;23.388;2023-06-04T11:09:33;5.20;;;4.70;;
19589;SDS011;12231;42.782;23.388;2023-06-04T11:12:00;5.68;;;5.10;;
19589;SDS011;12231;42.782;23.388;2023-06-04T11:14:26;6.05;;;4.95;;
19589;SDS011;12231;42.782;23.388;2023-06-04T11:16:51;6.22;;;4.85;;
19589;SDS011;12231;42.782;23.388;2023-06-04T11:19:30;6.82;;;4.53;;
19589;SDS011;12231;42.782;23.388;2023-06-04T11:21:59;8.93;;;4.72;;
19589;SDS011;12231;42.782;23.388;2023-06-04T11:24:25;5.95;;;5.13;;
19589;SDS011;12231;42.782;23.388;2023-06-04T11:26:51;5.68;;;4.60;;
19589;SDS011;12231;42.782;23.388;2023-06-04T11:29:16;6.45;;;5.13;;
19589;SDS011;12231;42.782;23.388;2023-06-04T11:31:45;5.72;;;5.15;;
19589;SDS011;12231;42.782;23.388;2023-06-04T11:34:11;6.20;;;5.25;;
19589;SDS011;12231;42.782;23.388;2023-06-04T11:36:46;5.93;;;5.32;;
19589;SDS011;12231;42.782;23.388;2023-06-04T11:39:13;6.18;;;5.68;;
19589;SDS011;12231;42.782;23.388;2023-06-04T11:41:40;5.57;;;4.75;;
19589;SDS011;12231;42.782;23.388;2023-06-04T11:44:06;6.88;;;6.10;;
19589;SDS011;12231;42.782;23.388;2023-06-04T11:46:40;11.13;;;7.78;;
19589;SDS011;12231;42.782;23.388;2023-06-04T11:49:06;5.18;;;4.40;;
19589;SDS011;12231;42.782;23.388;2023-06-04T11:51:32;6.68;;;5.68;;
19589;SDS011;12231;42.782;23.388;2023-06-04T11:53:57;6.20;;;5.40;;
19589;SDS011;12231;42.782;23.388;2023-06-04T11:56:26;5.70;;;4.18;;
19589;SDS011;12231;42.782;23.388;2023-06-04T11:58:54;5.05;;;4.55;;
19589;SDS011;12231;42.782;23.388;2023-06-04T12:01:22;6.30;;;4.95;;
19589;SDS011;12231;42.782;23.388;2023-06-04T12:03:48;5.72;;;4.95;;
19589;SDS011;12231;42.782;23.388;2023-06-04T12:06:17;5.47;;;4.95;;
19589;SDS011;12231;42.782;23.388;2023-06-04T12:08:49;9.63;;;5.65;;
19589;SDS011;12231;42.782;23.388;2023-06-04T12:11:25;4.68;;;4.18;;
19589;SDS011;12231;42.782;23.388;2023-06-04T12:13:52;8.52;;;5.32;;
19589;SDS011;12231;42.782;23.388;2023-06-04T12:16:17;4.55;;;4.15;;
19589;SDS011;12231;42.782;23.388;2023-06-04T12:18:42;4.82;;;4.38;;
19589;SDS011;12231;42.782;23.388;2023-06-04T12:21:28;5.80;;;5.30;;
19589;SDS011;12231;42.782;23.388;2023-06-04T12:23:54;6.75;;;6.05;;
19589;SDS011;12231;42.782;23.388;2023-06-04T12:26:20;6.32;;;4.50;;
19589;SDS011;12231;42.782;23.388;2023-06-04T12:31:35;5.70;;;5.15;;
19589;SDS011;12231;42.782;23.388;2023-06-04T12:34:00;5.93;;;5.20;;
19589;SDS011;12231;42.782;23.388;2023-06-04T12:36:26;5.03;;;4.53;;
19589;SDS011;12231;42.782;23.388;2023-06-04T12:38:51;6.80;;;5.22;;
19589;SDS011;12231;42.782;23.388;2023-06-04T12:41:16;7.63;;;5.00;;
19589;SDS011;12231;42.782;23.388;2023-06-04T12:43:41;5.15;;;4.40;;
19589;SDS011;12231;42.782;23.388;2023-06-04T12:46:07;5.70;;;5.13;;
19589;SDS011;12231;42.782;23.388;2023-06-04T12:48:32;7.30;;;5.85;;
19589;SDS011;12231;42.782;23.388;2023-06-04T12:50:58;6.95;;;5.93;;
19589;SDS011;12231;42.782;23.388;2023-06-04T12:53:23;6.70;;;6.10;;
19589;SDS011;12231;42.782;23.388;2023-06-04T12:55:49;7.72;;;5.68;;
19589;SDS011;12231;42.782;23.388;2023-06-04T12:58:16;6.50;;;5.90;;
19589;SDS011;12231;42.782;23.388;2023-06-04T13:00:53;10.02;;;5.85;;
19589;SDS011;12231;42.782;23.388;2023-06-04T13:03:18;9.20;;;6.05;;
19589;SDS011;12231;42.782;23.388;2023-06-04T13:05:47;7.07;;;6.38;;
19589;SDS011;12231;42.782;23.388;2023-06-04T13:08:12;6.80;;;6.10;;
19589;SDS011;12231;42.782;23.388;2023-06-04T13:10:37;7.47;;;6.78;;
19589;SDS011;12231;42.782;23.388;2023-06-04T13:13:02;7.95;;;7.15;;
19589;SDS011;12231;42.782;23.388;2023-06-04T13:15:27;8.52;;;6.82;;
19589;SDS011;12231;42.782;23.388;2023-06-04T13:17:54;6.75;;;6.07;;
19589;SDS011;12231;42.782;23.388;2023-06-04T13:20:19;6.78;;;6.05;;
19589;SDS011;12231;42.782;23.388;2023-06-04T13:22:45;6.32;;;5.10;;
19589;SDS011;12231;42.782;23.388;2023-06-04T13:25:10;6.40;;;5.65;;
19589;SDS011;12231;42.782;23.388;2023-06-04T13:27:35;7.03;;;5.60;;
19589;SDS011;12231;42.782;23.388;2023-06-04T13:30:00;7.53;;;5.22;;
19589;SDS011;12231;42.782;23.388;2023-06-04T13:32:26;7.03;;;5.22;;
19589;SDS011;12231;42.782;23.388;2023-06-04T13:34:51;6.30;;;5.70;;
19589;SDS011;12231;42.782;23.388;2023-06-04T13:37:17;6.18;;;5.47;;
19589;SDS011;12231;42.782;23.388;2023-06-04T13:39:42;7.15;;;5.30;;
19589;SDS011;12231;42.782;23.388;2023-06-04T13:42:07;5.38;;;4.88;;
19589;SDS011;12231;42.782;23.388;2023-06-04T13:44:33;6.63;;;5.72;;
19589;SDS011;12231;42.782;23.388;2023-06-04T13:46:58;8.80;;;5.88;;
19589;SDS011;12231;42.782;23.388;2023-06-04T13:49:24;6.75;;;5.65;;
19589;SDS011;12231;42.782;23.388;2023-06-04T13:51:49;5.88;;;5.38;;
19589;SDS011;12231;42.782;23.388;2023-06-04T13:54:14;6.60;;;5.90;;
19589;SDS011;12231;42.782;23.388;2023-06-04T13:56:39;5.57;;;5.07;;
19589;SDS011;12231;42.782;23.388;2023-06-04T13:59:05;6.05;;;5.25;;
19589;SDS011;12231;42.782;23.388;2023-06-04T14:01:31;6.13;;;5.30;;
19589;SDS011;12231;42.782;23.388;2023-06-04T14:03:56;5.35;;;4.85;;
19589;SDS011;12231;42.782;23.388;2023-06-04T14:06:23;5.57;;;5.05;;
19589;SDS011;12231;42.782;23.388;2023-06-04T14:08:48;5.47;;;4.80;;
19589;SDS011;12231;42.782;23.388;2023-06-04T14:11:14;5.25;;;3.33;;
19589;SDS011;12231;42.782;23.388;2023-06-04T14:13:39;4.22;;;2.72;;
19589;SDS011;12231;42.782;23.388;2023-06-04T14:16:06;4.22;;;3.83;;
19589;SDS011;12231;42.782;23.388;2023-06-04T14:18:31;6.03;;;4.95;;
19589;SDS011;12231;42.782;23.388;2023-06-04T14:20:56;6.20;;;4.45;;
19589;SDS011;12231;42.782;23.388;2023-06-04T14:23:22;8.35;;;4.85;;
19589;SDS011;12231;42.782;23.388;2023-06-04T14:25:47;4.18;;;2.60;;
19589;SDS011;12231;42.782;23.388;2023-06-04T14:28:12;3.15;;;2.20;;
19589;SDS011;12231;42.782;23.388;2023-06-04T14:30:37;2.72;;;2.53;;
19589;SDS011;12231;42.782;23.388;2023-06-04T14:33:03;2.78;;;2.30;;
19589;SDS011;12231;42.782;23.388;2023-06-04T14:35:28;3.63;;;2.28;;
19589;SDS011;12231;42.782;23.388;2023-06-04T14:37:53;2.80;;;2.60;;
19589;SDS011;12231;42.782;23.388;2023-06-04T14:40:19;3.70;;;3.00;;
19589;SDS011;12231;42.782;23.388;2023-06-04T14:42:44;2.67;;;2.13;;
19589;SDS011;12231;42.782;23.388;2023-06-04T14:45:10;4.75;;;3.00;;
19589;SDS011;12231;42.782;23.388;2023-06-04T14:47:35;2.65;;;2.35;;
19589;SDS011;12231;42.782;23.388;2023-06-04T14:50:00;2.30;;;2.10;;
19589;SDS011;12231;42.782;23.388;2023-06-04T14:52:25;2.40;;;2.20;;